sensor_id;sensor_type;location;lat;lon;timestamp;P1;durP1;ratioP1;P2;durP2;ratioP2
63032;SDS011;49121;38.932;-9.018;2023-02-01T00:06:24;10.25;;;5.55;;
63032;SDS011;49121;38.932;-9.018;2023-02-01T00:08:25;12.32;;;5.85;;
63032;SDS011;49121;38.932;-9.018;2023-02-01T00:10:26;11.88;;;6.22;;
63032;SDS011;49121;38.932;-9.018;2023-02-01T00:12:26;12.13;;;6.03;;
63032;SDS011;49121;38.932;-9.018;2023-02-01T00:14:27;13.15;;;7.28;;
63032;SDS011;49121;38.932;-9.018;2023-02-01T00:18:29;11.77;;;6.57;;
63032;SDS011;49121;38.932;-9.018;2023-02-01T00:20:30;14.10;;;7.28;;
63032;SDS011;49121;38.932;-9.018;2023-02-01T00:22:31;13.52;;;6.72;;
63032;SDS011;49121;38.932;-9.018;2023-02-01T00:24:31;12.57;;;6.35;;
63032;SDS011;49121;38.932;-9.018;2023-02-01T00:26:42;13.90;;;6.57;;
63032;SDS011;49121;38.932;-9.018;2023-02-01T00:28:45;9.73;;;6.40;;
63032;SDS011;49121;38.932;-9.018;2023-02-01T00:30:45;14.98;;;6.45;;
63032;SDS011;49121;38.932;-9.018;2023-02-01T00:32:46;12.60;;;6.63;;
63032;SDS011;49121;38.932;-9.018;2023-02-01T00:34:47;14.68;;;6.93;;
63032;SDS011;49121;38.932;-9.018;2023-02-01T00:36:48;14.32;;;6.15;;
63032;SDS011;49121;38.932;-9.018;2023-02-01T00:41:45;15.77;;;7.82;;
63032;SDS011;49121;38.932;-9.018;2023-02-01T00:48:43;12.18;;;6.88;;
63032;SDS011;49121;38.932;-9.018;2023-02-01T00:50:44;19.65;;;7.82;;
63032;SDS011;49121;38.932;-9.018;2023-02-01T00:52:44;14.43;;;7.80;;
63032;SDS011;49121;38.932;-9.018;2023-02-01T00:54:46;15.05;;;7.97;;
63032;SDS011;49121;38.932;-9.018;2023-02-01T00:56:46;15.40;;;8.02;;
63032;SDS011;49121;38.932;-9.018;2023-02-01T00:59:06;24.67;;;8.85;;
63032;SDS011;49121;38.932;-9.018;2023-02-01T01:01:26;18.80;;;8.98;;
63032;SDS011;49121;38.932;-9.018;2023-02-01T01:03:53;19.55;;;8.63;;
63032;SDS011;49121;38.932;-9.018;2023-02-01T01:06:15;15.68;;;7.28;;
63032;SDS011;49121;38.932;-9.018;2023-02-01T01:08:17;20.90;;;8.85;;
63032;SDS011;49121;38.932;-9.018;2023-02-01T01:10:18;16.58;;;7.63;;
63032;SDS011;49121;38.932;-9.018;2023-02-01T01:12:19;15.43;;;7.97;;
63032;SDS011;49121;38.932;-9.018;2023-02-01T01:14:20;17.77;;;9.15;;
63032;SDS011;49121;38.932;-9.018;2023-02-01T01:21:54;21.45;;;8.20;;
63032;SDS011;49121;38.932;-9.018;2023-02-01T01:24:13;21.55;;;9.27;;
63032;SDS011;49121;38.932;-9.018;2023-02-01T01:28:17;23.27;;;8.60;;
63032;SDS011;49121;38.932;-9.018;2023-02-01T01:32:37;18.85;;;9.27;;
63032;SDS011;49121;38.932;-9.018;2023-02-01T01:34:37;21.27;;;9.68;;
63032;SDS011;49121;38.932;-9.018;2023-02-01T01:36:39;19.70;;;9.00;;
63032;SDS011;49121;38.932;-9.018;2023-02-01T01:38:40;23.67;;;10.68;;
63032;SDS011;49121;38.932;-9.018;2023-02-01T01:40:44;17.52;;;9.93;;
63032;SDS011;49121;38.932;-9.018;2023-02-01T01:42:46;18.30;;;8.88;;
63032;SDS011;49121;38.932;-9.018;2023-02-01T01:44:57;18.58;;;9.73;;
63032;SDS011;49121;38.932;-9.018;2023-02-01T01:47:04;18.38;;;8.98;;
63032;SDS011;49121;38.932;-9.018;2023-02-01T01:49:12;18.98;;;9.77;;
63032;SDS011;49121;38.932;-9.018;2023-02-01T01:51:20;23.17;;;10.93;;
63032;SDS011;49121;38.932;-9.018;2023-02-01T01:53:43;21.42;;;9.75;;
63032;SDS011;49121;38.932;-9.018;2023-02-01T01:55:48;30.27;;;11.50;;
63032;SDS011;49121;38.932;-9.018;2023-02-01T01:57:53;20.58;;;9.85;;
63032;SDS011;49121;38.932;-9.018;2023-02-01T02:00:01;20.92;;;9.63;;
63032;SDS011;49121;38.932;-9.018;2023-02-01T02:02:13;19.17;;;9.30;;
63032;SDS011;49121;38.932;-9.018;2023-02-01T02:04:14;20.98;;;9.93;;
63032;SDS011;49121;38.932;-9.018;2023-02-01T02:06:18;20.15;;;10.02;;
63032;SDS011;49121;38.932;-9.018;2023-02-01T02:08:20;19.02;;;9.52;;
63032;SDS011;49121;38.932;-9.018;2023-02-01T02:11:00;18.40;;;9.60;;
63032;SDS011;49121;38.932;-9.018;2023-02-01T02:13:01;19.27;;;9.13;;
63032;SDS011;49121;38.932;-9.018;2023-02-01T02:15:01;19.40;;;9.38;;
63032;SDS011;49121;38.932;-9.018;2023-02-01T02:24:54;19.30;;;9.90;;
63032;SDS011;49121;38.932;-9.018;2023-02-01T02:36:12;21.45;;;10.48;;
63032;SDS011;49121;38.932;-9.018;2023-02-01T02:43:17;19.50;;;10.05;;
63032;SDS011;49121;38.932;-9.018;2023-02-01T02:46:03;20.65;;;9.00;;
63032;SDS011;49121;38.932;-9.018;2023-02-01T02:48:38;18.00;;;9.95;;
63032;SDS011;49121;38.932;-9.018;2023-02-01T02:53:23;18.77;;;9.43;;
63032;SDS011;49121;38.932;-9.018;2023-02-01T02:56:10;19.38;;;10.07;;
63032;SDS011;49121;38.932;-9.018;2023-02-01T03:00:50;20.40;;;9.23;;
63032;SDS011;49121;38.932;-9.018;2023-02-01T03:03:14;21.80;;;9.98;;
63032;SDS011;49121;38.932;-9.018;2023-02-01T03:05:36;20.23;;;9.10;;
63032;SDS011;49121;38.932;-9.018;2023-02-01T03:10:24;18.42;;;8.77;;
63032;SDS011;49121;38.932;-9.018;2023-02-01T03:12:27;18.42;;;9.48;;
63032;SDS011;49121;38.932;-9.018;2023-02-01T03:14:47;18.67;;;9.45;;
63032;SDS011;49121;38.932;-9.018;2023-02-01T03:17:00;17.20;;;8.70;;
63032;SDS011;49121;38.932;-9.018;2023-02-01T03:19:22;18.33;;;8.48;;
63032;SDS011;49121;38.932;-9.018;2023-02-01T03:21:40;17.98;;;9.60;;
63032;SDS011;49121;38.932;-9.018;2023-02-01T03:23:45;19.70;;;9.23;;
63032;SDS011;49121;38.932;-9.018;2023-02-01T03:25:49;17.45;;;8.73;;
63032;SDS011;49121;38.932;-9.018;2023-02-01T03:32:51;17.60;;;8.85;;
63032;SDS011;49121;38.932;-9.018;2023-02-01T03:35:20;19.52;;;10.10;;
63032;SDS011;49121;38.932;-9.018;2023-02-01T03:37:28;16.45;;;8.95;;
63032;SDS011;49121;38.932;-9.018;2023-02-01T03:47:30;20.48;;;9.07;;
63032;SDS011;49121;38.932;-9.018;2023-02-01T03:49:39;19.10;;;9.45;;
63032;SDS011;49121;38.932;-9.018;2023-02-01T03:57:46;20.02;;;9.52;;
63032;SDS011;49121;38.932;-9.018;2023-02-01T03:59:52;20.15;;;9.95;;
63032;SDS011;49121;38.932;-9.018;2023-02-01T04:01:53;21.45;;;10.30;;
63032;SDS011;49121;38.932;-9.018;2023-02-01T04:03:53;19.73;;;9.98;;
63032;SDS011;49121;38.932;-9.018;2023-02-01T04:05:57;17.63;;;9.48;;
63032;SDS011;49121;38.932;-9.018;2023-02-01T04:08:01;17.27;;;9.18;;
63032;SDS011;49121;38.932;-9.018;2023-02-01T04:10:02;17.55;;;9.38;;
63032;SDS011;49121;38.932;-9.018;2023-02-01T04:12:03;18.05;;;9.65;;
63032;SDS011;49121;38.932;-9.018;2023-02-01T04:14:04;22.48;;;9.73;;
63032;SDS011;49121;38.932;-9.018;2023-02-01T04:16:05;20.98;;;10.25;;
63032;SDS011;49121;38.932;-9.018;2023-02-01T04:18:06;20.35;;;9.18;;
63032;SDS011;49121;38.932;-9.018;2023-02-01T04:20:06;19.85;;;9.60;;
63032;SDS011;49121;38.932;-9.018;2023-02-01T04:22:09;20.98;;;9.55;;
63032;SDS011;49121;38.932;-9.018;2023-02-01T04:24:09;15.95;;;9.32;;
63032;SDS011;49121;38.932;-9.018;2023-02-01T04:26:10;19.33;;;10.43;;
63032;SDS011;49121;38.932;-9.018;2023-02-01T04:28:11;19.23;;;10.18;;
63032;SDS011;49121;38.932;-9.018;2023-02-01T04:30:12;22.13;;;10.05;;
63032;SDS011;49121;38.932;-9.018;2023-02-01T04:35:26;20.52;;;9.45;;
63032;SDS011;49121;38.932;-9.018;2023-02-01T04:39:46;24.88;;;9.63;;
63032;SDS011;49121;38.932;-9.018;2023-02-01T04:42:05;18.38;;;9.57;;
63032;SDS011;49121;38.932;-9.018;2023-02-01T04:44:05;19.15;;;9.32;;
63032;SDS011;49121;38.932;-9.018;2023-02-01T04:46:06;18.05;;;9.65;;
63032;SDS011;49121;38.932;-9.018;2023-02-01T04:48:07;19.17;;;9.63;;
63032;SDS011;49121;38.932;-9.018;2023-02-01T04:50:07;20.60;;;9.30;;
63032;SDS011;49121;38.932;-9.018;2023-02-01T04:52:11;20.42;;;9.32;;
63032;SDS011;49121;38.932;-9.018;2023-02-01T04:54:12;19.38;;;10.88;;
63032;SDS011;49121;38.932;-9.018;2023-02-01T04:56:13;17.63;;;9.27;;
63032;SDS011;49121;38.932;-9.018;2023-02-01T04:58:14;17.60;;;9.02;;
63032;SDS011;49121;38.932;-9.018;2023-02-01T05:00:33;19.45;;;9.07;;
63032;SDS011;49121;38.932;-9.018;2023-02-01T05:04:35;18.40;;;9.10;;
63032;SDS011;49121;38.932;-9.018;2023-02-01T05:06:37;22.80;;;11.20;;
63032;SDS011;49121;38.932;-9.018;2023-02-01T05:08:38;19.85;;;10.23;;
63032;SDS011;49121;38.932;-9.018;2023-02-01T05:10:38;22.35;;;10.45;;
63032;SDS011;49121;38.932;-9.018;2023-02-01T05:12:39;19.13;;;9.88;;
63032;SDS011;49121;38.932;-9.018;2023-02-01T05:14:58;16.00;;;9.55;;
63032;SDS011;49121;38.932;-9.018;2023-02-01T05:16:59;19.50;;;9.25;;
63032;SDS011;49121;38.932;-9.018;2023-02-01T05:21:49;17.77;;;9.55;;
63032;SDS011;49121;38.932;-9.018;2023-02-01T05:23:50;25.73;;;10.27;;
63032;SDS011;49121;38.932;-9.018;2023-02-01T05:28:28;18.15;;;9.30;;
63032;SDS011;49121;38.932;-9.018;2023-02-01T05:30:29;18.38;;;9.38;;
63032;SDS011;49121;38.932;-9.018;2023-02-01T05:32:51;19.85;;;9.00;;
63032;SDS011;49121;38.932;-9.018;2023-02-01T05:35:10;18.23;;;10.25;;
63032;SDS011;49121;38.932;-9.018;2023-02-01T05:40:08;19.30;;;8.90;;
63032;SDS011;49121;38.932;-9.018;2023-02-01T05:44:10;17.67;;;7.97;;
63032;SDS011;49121;38.932;-9.018;2023-02-01T05:46:11;19.77;;;9.38;;
63032;SDS011;49121;38.932;-9.018;2023-02-01T05:48:13;16.45;;;9.30;;
63032;SDS011;49121;38.932;-9.018;2023-02-01T05:50:13;20.73;;;11.07;;
63032;SDS011;49121;38.932;-9.018;2023-02-01T05:52:14;19.20;;;9.38;;
63032;SDS011;49121;38.932;-9.018;2023-02-01T05:54:19;18.15;;;8.93;;
63032;SDS011;49121;38.932;-9.018;2023-02-01T05:56:38;18.35;;;8.75;;
63032;SDS011;49121;38.932;-9.018;2023-02-01T05:58:40;20.58;;;9.32;;
63032;SDS011;49121;38.932;-9.018;2023-02-01T06:00:41;14.95;;;8.35;;
63032;SDS011;49121;38.932;-9.018;2023-02-01T06:02:42;23.00;;;9.77;;
63032;SDS011;49121;38.932;-9.018;2023-02-01T06:04:42;17.45;;;8.55;;
63032;SDS011;49121;38.932;-9.018;2023-02-01T06:06:43;23.35;;;9.00;;
63032;SDS011;49121;38.932;-9.018;2023-02-01T06:08:44;16.70;;;9.23;;
63032;SDS011;49121;38.932;-9.018;2023-02-01T06:10:44;19.20;;;9.98;;
63032;SDS011;49121;38.932;-9.018;2023-02-01T06:12:45;15.75;;;8.68;;
63032;SDS011;49121;38.932;-9.018;2023-02-01T06:14:46;18.13;;;8.35;;
63032;SDS011;49121;38.932;-9.018;2023-02-01T06:16:47;18.27;;;8.93;;
63032;SDS011;49121;38.932;-9.018;2023-02-01T06:18:48;23.33;;;9.55;;
63032;SDS011;49121;38.932;-9.018;2023-02-01T06:22:53;19.25;;;8.75;;
63032;SDS011;49121;38.932;-9.018;2023-02-01T06:24:54;15.95;;;8.50;;
63032;SDS011;49121;38.932;-9.018;2023-02-01T06:26:54;77.20;;;31.25;;
63032;SDS011;49121;38.932;-9.018;2023-02-01T06:28:55;18.75;;;10.15;;
63032;SDS011;49121;38.932;-9.018;2023-02-01T06:31:15;21.60;;;8.70;;
63032;SDS011;49121;38.932;-9.018;2023-02-01T06:35:36;19.58;;;9.57;;
63032;SDS011;49121;38.932;-9.018;2023-02-01T06:37:37;28.35;;;9.45;;
63032;SDS011;49121;38.932;-9.018;2023-02-01T06:39:37;14.60;;;8.07;;
63032;SDS011;49121;38.932;-9.018;2023-02-01T06:41:38;21.17;;;9.35;;
63032;SDS011;49121;38.932;-9.018;2023-02-01T06:43:39;19.60;;;9.82;;
63032;SDS011;49121;38.932;-9.018;2023-02-01T06:45:40;19.48;;;8.73;;
63032;SDS011;49121;38.932;-9.018;2023-02-01T06:47:41;22.40;;;9.40;;
63032;SDS011;49121;38.932;-9.018;2023-02-01T06:54:21;19.88;;;9.30;;
63032;SDS011;49121;38.932;-9.018;2023-02-01T06:56:40;21.27;;;9.60;;
63032;SDS011;49121;38.932;-9.018;2023-02-01T06:58:40;21.33;;;9.88;;
63032;SDS011;49121;38.932;-9.018;2023-02-01T07:00:41;18.33;;;9.27;;
63032;SDS011;49121;38.932;-9.018;2023-02-01T07:02:42;20.63;;;8.82;;
63032;SDS011;49121;38.932;-9.018;2023-02-01T07:05:01;20.70;;;8.90;;
63032;SDS011;49121;38.932;-9.018;2023-02-01T07:07:01;25.23;;;9.85;;
63032;SDS011;49121;38.932;-9.018;2023-02-01T07:09:02;21.70;;;10.52;;
63032;SDS011;49121;38.932;-9.018;2023-02-01T07:11:07;26.15;;;9.88;;
63032;SDS011;49121;38.932;-9.018;2023-02-01T07:21:03;24.75;;;10.20;;
63032;SDS011;49121;38.932;-9.018;2023-02-01T07:23:23;22.13;;;9.57;;
63032;SDS011;49121;38.932;-9.018;2023-02-01T07:28:22;18.80;;;8.30;;
63032;SDS011;49121;38.932;-9.018;2023-02-01T07:33:00;19.27;;;9.35;;
63032;SDS011;49121;38.932;-9.018;2023-02-01T07:35:01;25.70;;;10.07;;
63032;SDS011;49121;38.932;-9.018;2023-02-01T07:39:40;22.83;;;9.73;;
63032;SDS011;49121;38.932;-9.018;2023-02-01T07:41:40;24.98;;;10.95;;
63032;SDS011;49121;38.932;-9.018;2023-02-01T07:44:00;21.30;;;9.80;;
63032;SDS011;49121;38.932;-9.018;2023-02-01T07:46:20;22.15;;;9.63;;
63032;SDS011;49121;38.932;-9.018;2023-02-01T07:48:40;25.40;;;10.30;;
63032;SDS011;49121;38.932;-9.018;2023-02-01T07:50:56;21.67;;;9.63;;
63032;SDS011;49121;38.932;-9.018;2023-02-01T07:52:59;21.75;;;9.13;;
63032;SDS011;49121;38.932;-9.018;2023-02-01T07:55:00;21.27;;;10.52;;
63032;SDS011;49121;38.932;-9.018;2023-02-01T07:57:01;24.38;;;10.90;;
63032;SDS011;49121;38.932;-9.018;2023-02-01T07:59:02;26.20;;;10.73;;
63032;SDS011;49121;38.932;-9.018;2023-02-01T08:01:02;21.92;;;10.80;;
63032;SDS011;49121;38.932;-9.018;2023-02-01T08:03:22;32.75;;;13.32;;
63032;SDS011;49121;38.932;-9.018;2023-02-01T08:08:00;25.23;;;10.13;;
63032;SDS011;49121;38.932;-9.018;2023-02-01T08:10:01;28.30;;;11.63;;
63032;SDS011;49121;38.932;-9.018;2023-02-01T08:12:02;19.20;;;10.93;;
63032;SDS011;49121;38.932;-9.018;2023-02-01T08:14:03;25.25;;;11.07;;
63032;SDS011;49121;38.932;-9.018;2023-02-01T08:16:09;30.05;;;12.43;;
63032;SDS011;49121;38.932;-9.018;2023-02-01T08:18:10;32.85;;;11.95;;
63032;SDS011;49121;38.932;-9.018;2023-02-01T08:20:11;29.83;;;12.27;;
63032;SDS011;49121;38.932;-9.018;2023-02-01T08:22:13;30.08;;;12.43;;
63032;SDS011;49121;38.932;-9.018;2023-02-01T08:24:14;34.92;;;12.98;;
63032;SDS011;49121;38.932;-9.018;2023-02-01T08:26:16;31.52;;;12.30;;
63032;SDS011;49121;38.932;-9.018;2023-02-01T08:28:21;28.60;;;12.20;;
63032;SDS011;49121;38.932;-9.018;2023-02-01T08:30:22;28.02;;;11.65;;
63032;SDS011;49121;38.932;-9.018;2023-02-01T08:32:23;27.98;;;12.45;;
63032;SDS011;49121;38.932;-9.018;2023-02-01T08:34:23;27.73;;;14.23;;
63032;SDS011;49121;38.932;-9.018;2023-02-01T08:36:25;27.98;;;14.20;;
63032;SDS011;49121;38.932;-9.018;2023-02-01T08:38:27;35.58;;;14.30;;
63032;SDS011;49121;38.932;-9.018;2023-02-01T08:40:28;29.40;;;14.60;;
63032;SDS011;49121;38.932;-9.018;2023-02-01T08:42:29;29.67;;;15.23;;
63032;SDS011;49121;38.932;-9.018;2023-02-01T08:44:48;33.30;;;16.15;;
63032;SDS011;49121;38.932;-9.018;2023-02-01T08:46:49;34.63;;;16.30;;
63032;SDS011;49121;38.932;-9.018;2023-02-01T08:48:50;32.50;;;15.65;;
63032;SDS011;49121;38.932;-9.018;2023-02-01T08:50:53;29.58;;;15.25;;
63032;SDS011;49121;38.932;-9.018;2023-02-01T08:52:53;28.38;;;15.00;;
63032;SDS011;49121;38.932;-9.018;2023-02-01T08:54:55;29.77;;;17.02;;
63032;SDS011;49121;38.932;-9.018;2023-02-01T08:56:56;32.08;;;16.13;;
63032;SDS011;49121;38.932;-9.018;2023-02-01T09:01:22;30.48;;;16.70;;
63032;SDS011;49121;38.932;-9.018;2023-02-01T09:05:24;38.13;;;17.03;;
63032;SDS011;49121;38.932;-9.018;2023-02-01T09:07:47;49.58;;;19.17;;
63032;SDS011;49121;38.932;-9.018;2023-02-01T09:11:57;35.28;;;16.23;;
63032;SDS011;49121;38.932;-9.018;2023-02-01T09:14:01;32.90;;;17.10;;
63032;SDS011;49121;38.932;-9.018;2023-02-01T09:16:07;31.60;;;17.50;;
63032;SDS011;49121;38.932;-9.018;2023-02-01T09:23:47;34.20;;;14.45;;
63032;SDS011;49121;38.932;-9.018;2023-02-01T09:25:51;29.90;;;15.50;;
63032;SDS011;49121;38.932;-9.018;2023-02-01T09:30:11;31.30;;;15.07;;
63032;SDS011;49121;38.932;-9.018;2023-02-01T09:32:15;28.45;;;15.02;;
63032;SDS011;49121;38.932;-9.018;2023-02-01T09:34:15;28.63;;;14.95;;
63032;SDS011;49121;38.932;-9.018;2023-02-01T09:36:16;28.65;;;15.52;;
63032;SDS011;49121;38.932;-9.018;2023-02-01T09:40:39;25.63;;;14.07;;
63032;SDS011;49121;38.932;-9.018;2023-02-01T09:45:06;26.95;;;15.32;;
63032;SDS011;49121;38.932;-9.018;2023-02-01T09:47:22;39.40;;;17.20;;
63032;SDS011;49121;38.932;-9.018;2023-02-01T09:49:29;34.38;;;16.45;;
63032;SDS011;49121;38.932;-9.018;2023-02-01T09:51:33;28.73;;;16.45;;
63032;SDS011;49121;38.932;-9.018;2023-02-01T09:53:46;36.60;;;16.10;;
63032;SDS011;49121;38.932;-9.018;2023-02-01T09:58:29;35.80;;;18.52;;
63032;SDS011;49121;38.932;-9.018;2023-02-01T10:00:52;34.35;;;17.35;;
63032;SDS011;49121;38.932;-9.018;2023-02-01T10:03:04;42.17;;;16.83;;
63032;SDS011;49121;38.932;-9.018;2023-02-01T10:05:19;37.03;;;17.73;;
63032;SDS011;49121;38.932;-9.018;2023-02-01T10:14:45;43.17;;;21.15;;
63032;SDS011;49121;38.932;-9.018;2023-02-01T10:17:04;54.47;;;23.23;;
63032;SDS011;49121;38.932;-9.018;2023-02-01T10:19:24;45.58;;;22.02;;
63032;SDS011;49121;38.932;-9.018;2023-02-01T10:23:34;32.33;;;17.80;;
63032;SDS011;49121;38.932;-9.018;2023-02-01T10:28:13;29.17;;;15.40;;
63032;SDS011;49121;38.932;-9.018;2023-02-01T10:30:21;32.20;;;16.77;;
63032;SDS011;49121;38.932;-9.018;2023-02-01T10:32:32;28.38;;;16.30;;
63032;SDS011;49121;38.932;-9.018;2023-02-01T10:34:35;30.92;;;17.08;;
63032;SDS011;49121;38.932;-9.018;2023-02-01T10:36:45;32.70;;;16.60;;
63032;SDS011;49121;38.932;-9.018;2023-02-01T10:38:58;33.33;;;17.77;;
63032;SDS011;49121;38.932;-9.018;2023-02-01T10:43:09;30.80;;;16.95;;
63032;SDS011;49121;38.932;-9.018;2023-02-01T10:45:14;29.77;;;16.13;;
63032;SDS011;49121;38.932;-9.018;2023-02-01T10:47:25;26.60;;;16.95;;
63032;SDS011;49121;38.932;-9.018;2023-02-01T10:49:28;29.60;;;16.85;;
63032;SDS011;49121;38.932;-9.018;2023-02-01T10:51:42;33.42;;;16.98;;
63032;SDS011;49121;38.932;-9.018;2023-02-01T10:54:03;31.08;;;16.90;;
63032;SDS011;49121;38.932;-9.018;2023-02-01T10:56:18;30.45;;;16.40;;
63032;SDS011;49121;38.932;-9.018;2023-02-01T11:05:42;35.58;;;18.65;;
63032;SDS011;49121;38.932;-9.018;2023-02-01T11:07:51;29.35;;;15.88;;
63032;SDS011;49121;38.932;-9.018;2023-02-01T11:09:59;33.53;;;16.98;;
63032;SDS011;49121;38.932;-9.018;2023-02-01T11:12:02;33.00;;;17.33;;
63032;SDS011;49121;38.932;-9.018;2023-02-01T11:14:10;23.95;;;15.40;;
63032;SDS011;49121;38.932;-9.018;2023-02-01T11:16:17;29.70;;;16.17;;
63032;SDS011;49121;38.932;-9.018;2023-02-01T11:18:31;25.30;;;15.30;;
63032;SDS011;49121;38.932;-9.018;2023-02-01T11:20:38;28.75;;;15.88;;
63032;SDS011;49121;38.932;-9.018;2023-02-01T11:25:16;27.73;;;15.23;;
63032;SDS011;49121;38.932;-9.018;2023-02-01T11:27:38;28.48;;;15.38;;
63032;SDS011;49121;38.932;-9.018;2023-02-01T11:29:44;29.08;;;15.95;;
63032;SDS011;49121;38.932;-9.018;2023-02-01T11:31:50;27.80;;;13.68;;
63032;SDS011;49121;38.932;-9.018;2023-02-01T11:33:58;24.63;;;13.63;;
63032;SDS011;49121;38.932;-9.018;2023-02-01T11:36:31;24.40;;;13.20;;
63032;SDS011;49121;38.932;-9.018;2023-02-01T11:38:37;23.85;;;13.38;;
63032;SDS011;49121;38.932;-9.018;2023-02-01T11:40:38;24.13;;;13.85;;
63032;SDS011;49121;38.932;-9.018;2023-02-01T11:42:53;28.67;;;13.73;;
63032;SDS011;49121;38.932;-9.018;2023-02-01T11:45:19;20.67;;;11.68;;
63032;SDS011;49121;38.932;-9.018;2023-02-01T11:47:29;23.95;;;12.07;;
63032;SDS011;49121;38.932;-9.018;2023-02-01T11:49:31;26.08;;;12.43;;
63032;SDS011;49121;38.932;-9.018;2023-02-01T11:53:48;22.80;;;11.23;;
63032;SDS011;49121;38.932;-9.018;2023-02-01T11:56:01;22.05;;;11.45;;
63032;SDS011;49121;38.932;-9.018;2023-02-01T12:12:02;17.80;;;9.23;;
63032;SDS011;49121;38.932;-9.018;2023-02-01T12:19:17;16.52;;;7.75;;
63032;SDS011;49121;38.932;-9.018;2023-02-01T12:21:46;14.20;;;7.32;;
63032;SDS011;49121;38.932;-9.018;2023-02-01T12:27:04;13.93;;;6.63;;
63032;SDS011;49121;38.932;-9.018;2023-02-01T12:29:44;13.32;;;7.88;;
63032;SDS011;49121;38.932;-9.018;2023-02-01T12:41:30;17.85;;;9.93;;
63032;SDS011;49121;38.932;-9.018;2023-02-01T12:45:58;14.80;;;9.20;;
63032;SDS011;49121;38.932;-9.018;2023-02-01T12:50:55;14.35;;;9.32;;
63032;SDS011;49121;38.932;-9.018;2023-02-01T12:53:14;17.30;;;10.30;;
63032;SDS011;49121;38.932;-9.018;2023-02-01T12:55:24;15.95;;;9.55;;
63032;SDS011;49121;38.932;-9.018;2023-02-01T13:00:13;19.90;;;10.95;;
63032;SDS011;49121;38.932;-9.018;2023-02-01T13:02:47;20.52;;;10.88;;
63032;SDS011;49121;38.932;-9.018;2023-02-01T13:04:56;24.48;;;10.88;;
63032;SDS011;49121;38.932;-9.018;2023-02-01T13:10:00;18.83;;;10.18;;
63032;SDS011;49121;38.932;-9.018;2023-02-01T13:12:13;17.58;;;9.88;;
63032;SDS011;49121;38.932;-9.018;2023-02-01T13:14:35;17.02;;;9.82;;
63032;SDS011;49121;38.932;-9.018;2023-02-01T13:16:52;17.58;;;9.85;;
63032;SDS011;49121;38.932;-9.018;2023-02-01T13:27:36;13.57;;;8.30;;
63032;SDS011;49121;38.932;-9.018;2023-02-01T13:29:39;13.45;;;8.13;;
63032;SDS011;49121;38.932;-9.018;2023-02-01T13:34:54;12.20;;;8.25;;
63032;SDS011;49121;38.932;-9.018;2023-02-01T13:37:32;14.82;;;8.52;;
63032;SDS011;49121;38.932;-9.018;2023-02-01T13:42:49;9.30;;;6.10;;
63032;SDS011;49121;38.932;-9.018;2023-02-01T13:44:58;12.00;;;6.05;;
63032;SDS011;49121;38.932;-9.018;2023-02-01T13:49:39;10.88;;;6.95;;
63032;SDS011;49121;38.932;-9.018;2023-02-01T13:52:28;10.52;;;6.10;;
63032;SDS011;49121;38.932;-9.018;2023-02-01T13:54:41;12.75;;;6.78;;
63032;SDS011;49121;38.932;-9.018;2023-02-01T13:58:44;11.18;;;6.22;;
63032;SDS011;49121;38.932;-9.018;2023-02-01T14:00:49;12.07;;;6.50;;
63032;SDS011;49121;38.932;-9.018;2023-02-01T14:07:22;11.65;;;6.22;;
63032;SDS011;49121;38.932;-9.018;2023-02-01T14:09:42;11.20;;;6.45;;
63032;SDS011;49121;38.932;-9.018;2023-02-01T14:13:46;13.00;;;6.20;;
63032;SDS011;49121;38.932;-9.018;2023-02-01T14:20:43;11.40;;;6.18;;
63032;SDS011;49121;38.932;-9.018;2023-02-01T14:22:48;11.90;;;6.30;;
63032;SDS011;49121;38.932;-9.018;2023-02-01T14:26:53;13.63;;;5.60;;
63032;SDS011;49121;38.932;-9.018;2023-02-01T14:28:58;11.52;;;6.10;;
63032;SDS011;49121;38.932;-9.018;2023-02-01T14:31:28;11.40;;;6.03;;
63032;SDS011;49121;38.932;-9.018;2023-02-01T14:33:31;10.90;;;5.57;;
63032;SDS011;49121;38.932;-9.018;2023-02-01T14:37:37;11.20;;;6.43;;
63032;SDS011;49121;38.932;-9.018;2023-02-01T14:41:54;12.23;;;7.20;;
63032;SDS011;49121;38.932;-9.018;2023-02-01T14:44:22;12.70;;;6.40;;
63032;SDS011;49121;38.932;-9.018;2023-02-01T14:49:02;10.75;;;6.38;;
63032;SDS011;49121;38.932;-9.018;2023-02-01T14:55:29;13.40;;;7.00;;
63032;SDS011;49121;38.932;-9.018;2023-02-01T14:57:36;10.32;;;6.40;;
63032;SDS011;49121;38.932;-9.018;2023-02-01T14:59:40;11.45;;;6.22;;
63032;SDS011;49121;38.932;-9.018;2023-02-01T15:01:51;11.02;;;6.28;;
63032;SDS011;49121;38.932;-9.018;2023-02-01T15:07:26;11.13;;;6.07;;
63032;SDS011;49121;38.932;-9.018;2023-02-01T15:11:57;10.73;;;5.38;;
63032;SDS011;49121;38.932;-9.018;2023-02-01T15:16:57;11.48;;;6.25;;
63032;SDS011;49121;38.932;-9.018;2023-02-01T15:19:17;8.95;;;5.85;;
63032;SDS011;49121;38.932;-9.018;2023-02-01T15:23:19;11.93;;;6.82;;
63032;SDS011;49121;38.932;-9.018;2023-02-01T15:27:21;10.55;;;6.25;;
63032;SDS011;49121;38.932;-9.018;2023-02-01T15:29:23;14.35;;;6.35;;
63032;SDS011;49121;38.932;-9.018;2023-02-01T15:31:36;9.20;;;5.55;;
63032;SDS011;49121;38.932;-9.018;2023-02-01T15:36:17;8.15;;;5.57;;
63032;SDS011;49121;38.932;-9.018;2023-02-01T15:40:25;10.02;;;6.20;;
63032;SDS011;49121;38.932;-9.018;2023-02-01T15:44:28;11.52;;;5.00;;
63032;SDS011;49121;38.932;-9.018;2023-02-01T15:46:45;8.18;;;5.30;;
63032;SDS011;49121;38.932;-9.018;2023-02-01T15:48:49;11.32;;;6.07;;
63032;SDS011;49121;38.932;-9.018;2023-02-01T15:50:53;14.13;;;5.65;;
63032;SDS011;49121;38.932;-9.018;2023-02-01T15:52:55;14.25;;;6.68;;
63032;SDS011;49121;38.932;-9.018;2023-02-01T15:59:42;10.45;;;5.60;;
63032;SDS011;49121;38.932;-9.018;2023-02-01T16:01:44;8.15;;;5.43;;
63032;SDS011;49121;38.932;-9.018;2023-02-01T16:03:46;13.15;;;6.38;;
63032;SDS011;49121;38.932;-9.018;2023-02-01T16:05:53;11.55;;;5.25;;
63032;SDS011;49121;38.932;-9.018;2023-02-01T16:07:58;12.43;;;5.60;;
63032;SDS011;49121;38.932;-9.018;2023-02-01T16:10:19;10.55;;;5.25;;
63032;SDS011;49121;38.932;-9.018;2023-02-01T16:12:44;11.90;;;6.10;;
63032;SDS011;49121;38.932;-9.018;2023-02-01T16:14:46;12.38;;;6.28;;
63032;SDS011;49121;38.932;-9.018;2023-02-01T16:18:48;9.43;;;5.23;;
63032;SDS011;49121;38.932;-9.018;2023-02-01T16:20:49;10.82;;;5.43;;
63032;SDS011;49121;38.932;-9.018;2023-02-01T16:24:51;9.20;;;5.30;;
63032;SDS011;49121;38.932;-9.018;2023-02-01T16:26:55;9.52;;;4.88;;
63032;SDS011;49121;38.932;-9.018;2023-02-01T16:28:57;12.63;;;6.13;;
63032;SDS011;49121;38.932;-9.018;2023-02-01T16:30:59;7.65;;;4.78;;
63032;SDS011;49121;38.932;-9.018;2023-02-01T16:33:02;10.90;;;5.60;;
63032;SDS011;49121;38.932;-9.018;2023-02-01T16:35:30;10.77;;;5.15;;
63032;SDS011;49121;38.932;-9.018;2023-02-01T16:37:37;10.10;;;5.30;;
63032;SDS011;49121;38.932;-9.018;2023-02-01T16:41:38;8.80;;;4.37;;
63032;SDS011;49121;38.932;-9.018;2023-02-01T16:43:40;9.68;;;5.18;;
63032;SDS011;49121;38.932;-9.018;2023-02-01T16:45:41;8.52;;;5.20;;
63032;SDS011;49121;38.932;-9.018;2023-02-01T16:47:51;11.98;;;5.00;;
63032;SDS011;49121;38.932;-9.018;2023-02-01T16:49:55;9.63;;;4.88;;
63032;SDS011;49121;38.932;-9.018;2023-02-01T16:53:58;11.55;;;4.75;;
63032;SDS011;49121;38.932;-9.018;2023-02-01T16:56:00;10.73;;;5.32;;
63032;SDS011;49121;38.932;-9.018;2023-02-01T16:58:02;9.75;;;5.32;;
63032;SDS011;49121;38.932;-9.018;2023-02-01T17:02:04;17.95;;;6.30;;
63032;SDS011;49121;38.932;-9.018;2023-02-01T17:04:06;12.13;;;6.35;;
63032;SDS011;49121;38.932;-9.018;2023-02-01T17:08:09;18.70;;;7.95;;
63032;SDS011;49121;38.932;-9.018;2023-02-01T17:10:22;19.25;;;8.65;;